sensor_id;sensor_type;location;lat;lon;timestamp;P1;P2;P0
78842;PMS5003;70542;53.774;-0.352;2024-03-02T00:05:41;4;4;
78842;PMS5003;70542;53.774;-0.352;2024-03-02T00:11:37;4;4;
78842;PMS5003;70542;53.774;-0.352;2024-03-02T00:17:33;5;5;
78842;PMS5003;70542;53.774;-0.352;2024-03-02T00:23:41;14;14;
78842;PMS5003;70542;53.774;-0.352;2024-03-02T00:29:37;6;6;
78842;PMS5003;70542;53.774;-0.352;2024-03-02T00:35:45;20;16;
78842;PMS5003;70542;53.774;-0.352;2024-03-02T00:41:52;3;3;
78842;PMS5003;70542;53.774;-0.352;2024-03-02T00:48:00;3;3;
78842;PMS5003;70542;53.774;-0.352;2024-03-02T00:54:09;4;4;
78842;PMS5003;70542;53.774;-0.352;2024-03-02T01:00:06;6;6;
78842;PMS5003;70542;53.774;-0.352;2024-03-02T01:06:08;2;2;
78842;PMS5003;70542;53.774;-0.352;2024-03-02T01:12:04;3;3;
78842;PMS5003;70542;53.774;-0.352;2024-03-02T01:18:01;2;2;
78842;PMS5003;70542;53.774;-0.352;2024-03-02T01:24:10;5;3;
78842;PMS5003;70542;53.774;-0.352;2024-03-02T01:30:17;0;0;
78842;PMS5003;70542;53.774;-0.352;2024-03-02T01:36:25;0;0;
78842;PMS5003;70542;53.774;-0.352;2024-03-02T01:42:21;3;3;
78842;PMS5003;70542;53.774;-0.352;2024-03-02T01:48:29;2;2;
78842;PMS5003;70542;53.774;-0.352;2024-03-02T01:54:27;1;1;
78842;PMS5003;70542;53.774;-0.352;2024-03-02T02:00:28;0;0;
78842;PMS5003;70542;53.774;-0.352;2024-03-02T02:06:40;4;1;
78842;PMS5003;70542;53.774;-0.352;2024-03-02T02:12:49;2;2;
78842;PMS5003;70542;53.774;-0.352;2024-03-02T02:18:57;1;1;
78842;PMS5003;70542;53.774;-0.352;2024-03-02T02:25:06;0;0;
78842;PMS5003;70542;53.774;-0.352;2024-03-02T02:31:13;1;1;
78842;PMS5003;70542;53.774;-0.352;2024-03-02T02:37:14;4;4;
78842;PMS5003;70542;53.774;-0.352;2024-03-02T02:43:11;6;6;
78842;PMS5003;70542;53.774;-0.352;2024-03-02T02:49:07;4;4;
78842;PMS5003;70542;53.774;-0.352;2024-03-02T02:55:07;5;5;
78842;PMS5003;70542;53.774;-0.352;2024-03-02T03:01:04;3;3;
78842;PMS5003;70542;53.774;-0.352;2024-03-02T03:07:08;5;5;
78842;PMS5003;70542;53.774;-0.352;2024-03-02T03:13:04;5;5;
78842;PMS5003;70542;53.774;-0.352;2024-03-02T03:19:12;5;5;
78842;PMS5003;70542;53.774;-0.352;2024-03-02T03:25:19;4;4;
78842;PMS5003;70542;53.774;-0.352;2024-03-02T03:31:15;1;1;
78842;PMS5003;70542;53.774;-0.352;2024-03-02T03:37:23;2;2;
78842;PMS5003;70542;53.774;-0.352;2024-03-02T03:43:07;6;6;
78842;PMS5003;70542;53.774;-0.352;2024-03-02T03:49:16;4;4;
78842;PMS5003;70542;53.774;-0.352;2024-03-02T03:55:17;6;6;
78842;PMS5003;70542;53.774;-0.352;2024-03-02T04:01:14;8;6;
78842;PMS5003;70542;53.774;-0.352;2024-03-02T04:07:11;9;9;
78842;PMS5003;70542;53.774;-0.352;2024-03-02T04:13:20;2;2;
78842;PMS5003;70542;53.774;-0.352;2024-03-02T04:19:29;1;1;
78842;PMS5003;70542;53.774;-0.352;2024-03-02T04:25:25;1;1;
78842;PMS5003;70542;53.774;-0.352;2024-03-02T04:31:33;0;0;
78842;PMS5003;70542;53.774;-0.352;2024-03-02T04:37:41;2;2;
78842;PMS5003;70542;53.774;-0.352;2024-03-02T04:43:36;2;2;
78842;PMS5003;70542;53.774;-0.352;2024-03-02T04:49:44;7;5;
78842;PMS5003;70542;53.774;-0.352;2024-03-02T04:55:52;3;3;
78842;PMS5003;70542;53.774;-0.352;2024-03-02T05:01:58;2;2;
78842;PMS5003;70542;53.774;-0.352;2024-03-02T05:07:54;3;3;
78842;PMS5003;70542;53.774;-0.352;2024-03-02T05:13:50;5;5;
78842;PMS5003;70542;53.774;-0.352;2024-03-02T05:19:57;9;9;
78842;PMS5003;70542;53.774;-0.352;2024-03-02T05:26:10;7;7;
78842;PMS5003;70542;53.774;-0.352;2024-03-02T05:32:18;9;9;
78842;PMS5003;70542;53.774;-0.352;2024-03-02T05:38:26;4;4;
78842;PMS5003;70542;53.774;-0.352;2024-03-02T05:44:22;3;3;
78842;PMS5003;70542;53.774;-0.352;2024-03-02T05:50:30;6;6;
78842;PMS5003;70542;53.774;-0.352;2024-03-02T05:56:39;5;5;
78842;PMS5003;70542;53.774;-0.352;2024-03-02T06:02:48;2;2;
78842;PMS5003;70542;53.774;-0.352;2024-03-02T06:09:00;3;3;
78842;PMS5003;70542;53.774;-0.352;2024-03-02T06:14:56;1;1;
78842;PMS5003;70542;53.774;-0.352;2024-03-02T06:21:02;7;3;
78842;PMS5003;70542;53.774;-0.352;2024-03-02T06:27:11;5;5;
78842;PMS5003;70542;53.774;-0.352;2024-03-02T06:33:18;5;5;
78842;PMS5003;70542;53.774;-0.352;2024-03-02T06:39:14;6;6;
78842;PMS5003;70542;53.774;-0.352;2024-03-02T06:45:22;7;7;
78842;PMS5003;70542;53.774;-0.352;2024-03-02T06:51:30;5;5;
78842;PMS5003;70542;53.774;-0.352;2024-03-02T06:57:26;5;5;
78842;PMS5003;70542;53.774;-0.352;2024-03-02T07:03:09;3;3;
78842;PMS5003;70542;53.774;-0.352;2024-03-02T07:09:17;1;1;
78842;PMS5003;70542;53.774;-0.352;2024-03-02T07:15:13;2;2;
78842;PMS5003;70542;53.774;-0.352;2024-03-02T07:21:10;2;2;
78842;PMS5003;70542;53.774;-0.352;2024-03-02T07:27:06;2;2;
78842;PMS5003;70542;53.774;-0.352;2024-03-02T07:33:14;9;9;
78842;PMS5003;70542;53.774;-0.352;2024-03-02T07:39:10;3;3;
78842;PMS5003;70542;53.774;-0.352;2024-03-02T07:45:06;1;1;
78842;PMS5003;70542;53.774;-0.352;2024-03-02T07:51:14;4;4;
78842;PMS5003;70542;53.774;-0.352;2024-03-02T07:57:10;1;1;
78842;PMS5003;70542;53.774;-0.352;2024-03-02T08:03:11;2;2;
78842;PMS5003;70542;53.774;-0.352;2024-03-02T08:09:24;5;5;
78842;PMS5003;70542;53.774;-0.352;2024-03-02T08:15:38;4;4;
78842;PMS5003;70542;53.774;-0.352;2024-03-02T08:25:43;3;3;
78842;PMS5003;70542;53.774;-0.352;2024-03-02T08:31:40;5;5;
78842;PMS5003;70542;53.774;-0.352;2024-03-02T08:37:48;3;3;
78842;PMS5003;70542;53.774;-0.352;2024-03-02T08:44:13;2;2;
78842;PMS5003;70542;53.774;-0.352;2024-03-02T08:50:16;2;2;
78842;PMS5003;70542;53.774;-0.352;2024-03-02T08:55:55;3;3;
78842;PMS5003;70542;53.774;-0.352;2024-03-02T09:01:57;2;2;
78842;PMS5003;70542;53.774;-0.352;2024-03-02T09:08:10;3;3;
78842;PMS5003;70542;53.774;-0.352;2024-03-02T11:02:46;5;5;
78842;PMS5003;70542;53.774;-0.352;2024-03-02T11:08:47;4;4;
78842;PMS5003;70542;53.774;-0.352;2024-03-02T11:15:03;1;1;
78842;PMS5003;70542;53.774;-0.352;2024-03-02T11:21:09;0;0;
78842;PMS5003;70542;53.774;-0.352;2024-03-02T11:34:30;1;1;
78842;PMS5003;70542;53.774;-0.352;2024-03-02T11:48:16;3;3;
78842;PMS5003;70542;53.774;-0.352;2024-03-02T11:54:21;3;3;
78842;PMS5003;70542;53.774;-0.352;2024-03-02T12:00:21;2;2;
78842;PMS5003;70542;53.774;-0.352;2024-03-02T12:06:33;5;5;
78842;PMS5003;70542;53.774;-0.352;2024-03-02T12:12:34;3;3;
78842;PMS5003;70542;53.774;-0.352;2024-03-02T12:18:47;5;5;
78842;PMS5003;70542;53.774;-0.352;2024-03-02T12:25:16;2;2;
78842;PMS5003;70542;53.774;-0.352;2024-03-02T12:31:20;1;1;
78842;PMS5003;70542;53.774;-0.352;2024-03-02T12:37:21;8;8;
78842;PMS5003;70542;53.774;-0.352;2024-03-02T12:43:29;5;5;
78842;PMS5003;70542;53.774;-0.352;2024-03-02T12:49:46;4;4;
78842;PMS5003;70542;53.774;-0.352;2024-03-02T12:56:19;2;2;
78842;PMS5003;70542;53.774;-0.352;2024-03-02T13:02:23;3;3;
78842;PMS5003;70542;53.774;-0.352;2024-03-02T13:08:49;3;3;
78842;PMS5003;70542;53.774;-0.352;2024-03-02T13:15:16;2;2;
78842;PMS5003;70542;53.774;-0.352;2024-03-02T13:21:26;8;8;
78842;PMS5003;70542;53.774;-0.352;2024-03-02T13:33:40;5;5;
78842;PMS5003;70542;53.774;-0.352;2024-03-02T13:39:45;5;5;
78842;PMS5003;70542;53.774;-0.352;2024-03-02T13:45:28;6;6;
78842;PMS5003;70542;53.774;-0.352;2024-03-02T13:51:36;10;7;
78842;PMS5003;70542;53.774;-0.352;2024-03-02T13:57:48;3;3;
78842;PMS5003;70542;53.774;-0.352;2024-03-02T14:04:17;1;1;
78842;PMS5003;70542;53.774;-0.352;2024-03-02T14:10:11;2;2;
78842;PMS5003;70542;53.774;-0.352;2024-03-02T14:16:31;1;1;
78842;PMS5003;70542;53.774;-0.352;2024-03-02T14:22:31;1;1;
78842;PMS5003;70542;53.774;-0.352;2024-03-02T14:28:31;2;2;
78842;PMS5003;70542;53.774;-0.352;2024-03-02T14:35:20;0;0;
78842;PMS5003;70542;53.774;-0.352;2024-03-02T14:41:24;0;0;
78842;PMS5003;70542;53.774;-0.352;2024-03-02T14:47:40;3;3;
78842;PMS5003;70542;53.774;-0.352;2024-03-02T14:53:59;1;1;
78842;PMS5003;70542;53.774;-0.352;2024-03-02T15:01:08;2;2;
78842;PMS5003;70542;53.774;-0.352;2024-03-02T15:07:41;9;9;
78842;PMS5003;70542;53.774;-0.352;2024-03-02T15:13:57;8;8;
78842;PMS5003;70542;53.774;-0.352;2024-03-02T15:20:06;5;5;
78842;PMS5003;70542;53.774;-0.352;2024-03-02T15:26:12;1;1;
78842;PMS5003;70542;53.774;-0.352;2024-03-02T15:32:32;3;3;
78842;PMS5003;70542;53.774;-0.352;2024-03-02T15:38:48;1;1;
78842;PMS5003;70542;53.774;-0.352;2024-03-02T15:45:00;0;0;
78842;PMS5003;70542;53.774;-0.352;2024-03-02T15:51:14;3;3;
78842;PMS5003;70542;53.774;-0.352;2024-03-02T15:57:41;0;0;
78842;PMS5003;70542;53.774;-0.352;2024-03-02T16:03:38;2;2;
78842;PMS5003;70542;53.774;-0.352;2024-03-02T16:09:46;1;1;
78842;PMS5003;70542;53.774;-0.352;2024-03-02T16:15:51;1;1;
78842;PMS5003;70542;53.774;-0.352;2024-03-02T16:21:50;4;4;
78842;PMS5003;70542;53.774;-0.352;2024-03-02T16:27:50;0;0;
78842;PMS5003;70542;53.774;-0.352;2024-03-02T16:33:58;0;0;
78842;PMS5003;70542;53.774;-0.352;2024-03-02T16:40:07;4;4;
78842;PMS5003;70542;53.774;-0.352;2024-03-02T16:46:27;1;1;
78842;PMS5003;70542;53.774;-0.352;2024-03-02T16:52:30;2;2;
78842;PMS5003;70542;53.774;-0.352;2024-03-02T16:58:31;1;1;
78842;PMS5003;70542;53.774;-0.352;2024-03-02T17:04:28;2;2;
78842;PMS5003;70542;53.774;-0.352;2024-03-02T17:10:29;4;4;
78842;PMS5003;70542;53.774;-0.352;2024-03-02T17:16:52;3;3;
78842;PMS5003;70542;53.774;-0.352;2024-03-02T17:23:05;3;3;
78842;PMS5003;70542;53.774;-0.352;2024-03-02T17:29:11;2;2;
78842;PMS5003;70542;53.774;-0.352;2024-03-02T17:35:19;2;2;
78842;PMS5003;70542;53.774;-0.352;2024-03-02T17:41:15;3;3;
78842;PMS5003;70542;53.774;-0.352;2024-03-02T17:47:17;4;4;
78842;PMS5003;70542;53.774;-0.352;2024-03-02T17:53:28;4;4;
78842;PMS5003;70542;53.774;-0.352;2024-03-02T17:59:28;19;19;
78842;PMS5003;70542;53.774;-0.352;2024-03-02T18:05:24;15;15;
78842;PMS5003;70542;53.774;-0.352;2024-03-02T18:11:31;9;9;
78842;PMS5003;70542;53.774;-0.352;2024-03-02T18:17:40;11;11;
78842;PMS5003;70542;53.774;-0.352;2024-03-02T18:23:36;11;11;
78842;PMS5003;70542;53.774;-0.352;2024-03-02T18:29:45;9;9;
78842;PMS5003;70542;53.774;-0.352;2024-03-02T18:35:54;9;9;
78842;PMS5003;70542;53.774;-0.352;2024-03-02T18:42:03;4;4;
78842;PMS5003;70542;53.774;-0.352;2024-03-02T18:48:12;4;4;
78842;PMS5003;70542;53.774;-0.352;2024-03-02T18:54:25;11;11;
78842;PMS5003;70542;53.774;-0.352;2024-03-02T19:00:40;2;2;
78842;PMS5003;70542;53.774;-0.352;2024-03-02T19:06:47;4;4;
78842;PMS5003;70542;53.774;-0.352;2024-03-02T19:13:00;7;7;
78842;PMS5003;70542;53.774;-0.352;2024-03-02T19:19:01;23;19;
78842;PMS5003;70542;53.774;-0.352;2024-03-02T19:25:10;6;6;
78842;PMS5003;70542;53.774;-0.352;2024-03-02T19:31:07;6;6;
78842;PMS5003;70542;53.774;-0.352;2024-03-02T19:37:03;6;6;
78842;PMS5003;70542;53.774;-0.352;2024-03-02T19:43:03;4;4;
78842;PMS5003;70542;53.774;-0.352;2024-03-02T19:48:59;6;6;
78842;PMS5003;70542;53.774;-0.352;2024-03-02T19:55:12;11;11;
78842;PMS5003;70542;53.774;-0.352;2024-03-02T20:01:08;13;13;
78842;PMS5003;70542;53.774;-0.352;2024-03-02T20:07:14;11;11;
78842;PMS5003;70542;53.774;-0.352;2024-03-02T20:13:16;7;7;
78842;PMS5003;70542;53.774;-0.352;2024-03-02T20:19:17;16;16;
78842;PMS5003;70542;53.774;-0.352;2024-03-02T20:25:25;7;7;
78842;PMS5003;70542;53.774;-0.352;2024-03-02T20:31:26;7;7;
78842;PMS5003;70542;53.774;-0.352;2024-03-02T20:37:34;6;6;
78842;PMS5003;70542;53.774;-0.352;2024-03-02T20:43:45;15;11;
78842;PMS5003;70542;53.774;-0.352;2024-03-02T20:49:54;13;13;
78842;PMS5003;70542;53.774;-0.352;2024-03-02T20:56:07;10;10;
78842;PMS5003;70542;53.774;-0.352;2024-03-02T21:02:09;24;12;
78842;PMS5003;70542;53.774;-0.352;2024-03-02T21:08:17;2;2;
78842;PMS5003;70542;53.774;-0.352;2024-03-02T21:14:13;7;7;
78842;PMS5003;70542;53.774;-0.352;2024-03-02T21:20:21;11;11;
78842;PMS5003;70542;53.774;-0.352;2024-03-02T21:26:29;6;6;
78842;PMS5003;70542;53.774;-0.352;2024-03-02T21:32:25;4;4;
78842;PMS5003;70542;53.774;-0.352;2024-03-02T21:38:26;6;6;
78842;PMS5003;70542;53.774;-0.352;2024-03-02T21:44:23;7;7;
78842;PMS5003;70542;53.774;-0.352;2024-03-02T21:50:45;12;10;
78842;PMS5003;70542;53.774;-0.352;2024-03-02T21:56:47;9;9;
78842;PMS5003;70542;53.774;-0.352;2024-03-02T22:02:55;6;6;
78842;PMS5003;70542;53.774;-0.352;2024-03-02T22:09:08;1;1;
78842;PMS5003;70542;53.774;-0.352;2024-03-02T22:15:27;4;4;
78842;PMS5003;70542;53.774;-0.352;2024-03-02T22:21:54;10;10;
78842;PMS5003;70542;53.774;-0.352;2024-03-02T22:28:02;6;6;
78842;PMS5003;70542;53.774;-0.352;2024-03-02T22:34:25;16;16;
78842;PMS5003;70542;53.774;-0.352;2024-03-02T22:40:26;15;11;
78842;PMS5003;70542;53.774;-0.352;2024-03-02T22:46:45;9;9;
78842;PMS5003;70542;53.774;-0.352;2024-03-02T22:52:46;7;7;
78842;PMS5003;70542;53.774;-0.352;2024-03-02T22:59:03;15;15;
78842;PMS5003;70542;53.774;-0.352;2024-03-02T23:04:59;13;9;
78842;PMS5003;70542;53.774;-0.352;2024-03-02T23:11:07;9;9;
78842;PMS5003;70542;53.774;-0.352;2024-03-02T23:17:15;15;11;
78842;PMS5003;70542;53.774;-0.352;2024-03-02T23:23:31;12;12;
78842;PMS5003;70542;53.774;-0.352;2024-03-02T23:29:44;10;10;
78842;PMS5003;70542;53.774;-0.352;2024-03-02T23:35:40;16;16;
78842;PMS5003;70542;53.774;-0.352;2024-03-02T23:41:36;17;17;
78842;PMS5003;70542;53.774;-0.352;2024-03-02T23:47:43;14;14;
78842;PMS5003;70542;53.774;-0.352;2024-03-02T23:53:56;16;16;
